Time;durP1;ratioP1;P1;durP2;ratioP2;P2;SDS_P1;SDS_P2;PMS_P1;PMS_P2;Temp;Humidity;BMP_temperature;BMP_pressure;BME280_temperature;BME280_humidity;BME280_pressure;Samples;Min_cycle;Max_cycle;Signal;HPM_P1;HPM_P2
2022/01/08 00:02:07;;;;;;;5.47;4.97;;;0.40;99.90;;;;;;5091113;28;20432;-55
2022/01/08 00:04:33;;;;;;;5.53;4.80;;;0.50;99.90;;;;;;5090836;28;20532;-56
2022/01/08 00:06:59;;;;;;;5.80;5.18;;;0.50;99.90;;;;;;5090414;28;20028;-55
2022/01/08 00:09:24;;;;;;;5.45;4.95;;;0.50;99.90;;;;;;5090415;28;20050;-53
2022/01/08 00:11:50;;;;;;;4.95;4.55;;;0.60;99.90;;;;;;5090138;28;20035;-54
2022/01/08 00:14:16;;;;;;;5.15;4.72;;;0.60;99.90;;;;;;5071377;28;20024;-53
2022/01/08 00:16:42;;;;;;;5.28;4.75;;;0.60;99.90;;;;;;5089023;28;20028;-55
2022/01/08 00:19:07;;;;;;;5.43;4.93;;;0.60;99.90;;;;;;5090695;28;20016;-56
2022/01/08 00:21:34;;;;;;;8.13;5.35;;;0.50;99.90;;;;;;5090485;28;20030;-56
2022/01/08 00:24:00;;;;;;;5.53;4.78;;;0.50;99.90;;;;;;5090705;28;20107;-55
2022/01/08 00:26:26;;;;;;;6.60;5.00;;;0.50;99.90;;;;;;5090476;28;20107;-56
2022/01/08 00:28:51;;;;;;;5.28;4.82;;;0.60;99.90;;;;;;5090673;28;20108;-56
2022/01/08 00:31:17;;;;;;;4.60;4.28;;;0.60;99.90;;;;;;5090654;28;20020;-54
2022/01/08 00:33:47;;;;;;;5.50;4.85;;;0.50;99.90;;;;;;5090566;28;20024;-54
2022/01/08 00:36:13;;;;;;;4.00;3.70;;;0.50;99.90;;;;;;5090704;28;20539;-54
2022/01/08 00:38:39;;;;;;;6.95;4.22;;;0.60;99.90;;;;;;5091300;28;20028;-55
2022/01/08 00:41:04;;;;;;;6.00;5.38;;;0.60;99.90;;;;;;5073716;28;20031;-56
2022/01/08 00:43:52;;;;;;;4.95;4.55;;;0.60;99.90;;;;;;5091523;28;20401;-55
2022/01/08 00:46:18;;;;;;;4.90;4.38;;;0.60;99.90;;;;;;5091725;28;20102;-55
2022/01/08 00:48:44;;;;;;;4.65;4.25;;;0.70;99.90;;;;;;5091657;28;20066;-55
2022/01/08 00:51:10;;;;;;;5.63;4.97;;;0.70;99.90;;;;;;5091613;28;20085;-55
2022/01/08 00:53:36;;;;;;;4.30;4.00;;;0.60;99.90;;;;;;5073118;28;20032;-55
2022/01/08 00:56:02;;;;;;;5.05;4.65;;;0.60;99.90;;;;;;5072850;28;20127;-56
2022/01/08 00:58:28;;;;;;;4.22;3.92;;;0.60;99.90;;;;;;5072039;28;20172;-51
2022/01/08 01:00:54;;;;;;;4.78;3.78;;;0.70;99.90;;;;;;5089444;28;20035;-53
2022/01/08 01:03:19;;;;;;;4.35;3.38;;;0.80;99.90;;;;;;5091340;28;20024;-53
2022/01/08 01:05:45;;;;;;;4.13;3.83;;;0.70;99.90;;;;;;5089646;28;20024;-54
2022/01/08 01:08:11;;;;;;;4.43;4.05;;;0.70;99.90;;;;;;5092017;28;20467;-53
2022/01/08 01:10:36;;;;;;;4.28;3.97;;;0.70;99.90;;;;;;5092377;28;20039;-54
2022/01/08 01:13:02;;;;;;;5.70;5.15;;;0.70;99.90;;;;;;5095409;28;20052;-55
2022/01/08 01:15:28;;;;;;;3.72;3.45;;;0.70;99.90;;;;;;5094126;28;20030;-57
2022/01/08 01:17:54;;;;;;;4.07;3.78;;;0.70;99.90;;;;;;5093826;28;20483;-55
2022/01/08 01:20:21;;;;;;;4.35;3.95;;;0.80;99.90;;;;;;5094164;28;20087;-55
2022/01/08 01:22:53;;;;;;;4.90;4.43;;;0.70;99.90;;;;;;5094633;28;20028;-56
2022/01/08 01:25:20;;;;;;;4.15;3.83;;;0.80;99.90;;;;;;5095354;28;20020;-56
2022/01/08 01:30:17;;;;;;;4.30;3.90;;;0.80;99.90;;;;;;5095163;28;20024;-55
2022/01/08 01:46:59;;;;;;;5.88;5.35;;;0.90;99.90;;;;;;5093060;28;20031;-55
2022/01/08 01:48:52;;;;;;;4.32;4.03;;;1.00;99.90;;;;;;5093714;28;20035;-55
2022/01/08 01:51:22;;;;;;;4.57;4.28;;;1.00;99.90;;;;;;5093508;28;20154;-56
2022/01/08 01:53:48;;;;;;;4.78;4.38;;;1.00;99.90;;;;;;5093440;28;20024;-54
2022/01/08 01:56:19;;;;;;;4.60;4.20;;;1.00;99.90;;;;;;5057161;28;20044;-54
2022/01/08 01:58:46;;;;;;;5.00;4.60;;;1.00;99.90;;;;;;5072734;28;20020;-54
2022/01/08 02:01:12;;;;;;;5.75;4.70;;;1.00;99.90;;;;;;5073193;28;20017;-55
2022/01/08 02:03:39;;;;;;;5.32;4.93;;;1.00;99.90;;;;;;5073142;28;20025;-54
2022/01/08 02:06:06;;;;;;;5.20;4.35;;;1.00;99.90;;;;;;5073213;28;20033;-56
2022/01/08 02:08:32;;;;;;;5.25;4.85;;;1.00;99.90;;;;;;5072937;28;20521;-55
2022/01/08 02:10:58;;;;;;;6.03;5.15;;;1.00;99.90;;;;;;5072901;28;20079;-51
2022/01/08 02:13:26;;;;;;;5.70;4.70;;;1.00;99.90;;;;;;5072947;28;20472;-56
2022/01/08 02:15:54;;;;;;;13.10;8.25;;;0.90;99.90;;;;;;5073046;28;20097;-54
2022/01/08 02:18:21;;;;;;;8.93;5.97;;;0.90;99.90;;;;;;5071387;28;20024;-52
2022/01/08 02:20:47;;;;;;;6.72;5.43;;;0.80;99.90;;;;;;5054741;28;20025;-53
2022/01/08 02:23:13;;;;;;;4.93;4.43;;;0.80;99.90;;;;;;5072744;28;20039;-54
2022/01/08 02:25:38;;;;;;;4.97;4.55;;;0.80;99.90;;;;;;5072536;28;20031;-54
2022/01/08 02:28:05;;;;;;;5.75;4.68;;;0.80;99.90;;;;;;5072695;28;20020;-55
2022/01/08 02:30:31;;;;;;;4.90;4.50;;;0.90;99.90;;;;;;5072621;28;20573;-51
2022/01/08 02:32:57;;;;;;;32.63;13.25;;;0.80;99.90;;;;;;5072551;28;20037;-54
2022/01/08 02:35:23;;;;;;;96.45;33.25;;;0.80;99.90;;;;;;5054533;28;20028;-56
2022/01/08 02:37:49;;;;;;;5.90;5.30;;;0.80;99.90;;;;;;5072460;28;20106;-55
2022/01/08 02:40:16;;;;;;;10.00;6.32;;;0.80;99.90;;;;;;5072341;28;20048;-55
2022/01/08 02:42:51;;;;;;;5.30;4.53;;;0.80;99.90;;;;;;5072160;28;20060;-54
2022/01/08 02:45:17;;;;;;;5.50;5.00;;;0.80;99.90;;;;;;5072365;28;20031;-55
2022/01/08 02:47:44;;;;;;;4.45;3.92;;;0.60;99.90;;;;;;5072063;28;20318;-54
2022/01/08 02:50:10;;;;;;;6.63;4.85;;;0.50;99.90;;;;;;5072375;28;20364;-55
2022/01/08 02:52:40;;;;;;;7.03;5.30;;;0.30;99.90;;;;;;5071940;28;20032;-56
2022/01/08 02:55:07;;;;;;;7.82;6.13;;;0.20;99.90;;;;;;5080560;28;20044;-56
2022/01/08 02:57:33;;;;;;;6.25;5.68;;;0.00;99.90;;;;;;5092162;28;20062;-52
2022/01/08 02:59:58;;;;;;;14.20;5.50;;;-0.20;99.90;;;;;;5074206;28;20052;-55
2022/01/08 03:02:24;;;;;;;7.15;6.47;;;-0.30;99.90;;;;;;5092110;28;20031;-54
2022/01/08 03:04:52;;;;;;;5.32;4.93;;;-0.40;99.90;;;;;;5092130;28;20387;-52
2022/01/08 03:07:18;;;;;;;5.68;5.18;;;-0.40;99.90;;;;;;5092067;28;20020;-55
2022/01/08 03:09:46;;;;;;;6.00;5.47;;;-0.60;99.90;;;;;;5092043;28;20070;-55
2022/01/08 03:12:12;;;;;;;6.88;5.63;;;-0.60;99.90;;;;;;5092085;28;20069;-55
2022/01/08 03:14:38;;;;;;;7.05;6.07;;;-0.80;99.90;;;;;;5091851;28;20021;-53
2022/01/08 03:17:03;;;;;;;7.38;5.60;;;-0.80;99.90;;;;;;5092219;28;20028;-54
2022/01/08 03:19:30;;;;;;;8.90;5.70;;;-0.90;99.90;;;;;;5091694;28;20099;-56
2022/01/08 03:21:57;;;;;;;7.82;5.93;;;-1.00;99.90;;;;;;5091781;28;20100;-56
2022/01/08 03:24:27;;;;;;;16.23;7.80;;;-1.00;99.90;;;;;;5091766;28;20498;-54
2022/01/08 03:26:54;;;;;;;10.38;5.95;;;-1.20;99.90;;;;;;5091792;28;20069;-56
2022/01/08 03:29:20;;;;;;;9.07;5.85;;;-1.20;99.90;;;;;;5091310;28;20020;-54
2022/01/08 03:31:45;;;;;;;13.23;4.90;;;-1.30;99.90;;;;;;5091721;28;20462;-54
2022/01/08 03:34:11;;;;;;;6.70;5.00;;;-1.40;99.90;;;;;;5073323;28;20387;-54
2022/01/08 03:36:37;;;;;;;14.90;5.18;;;-1.50;99.90;;;;;;5091322;28;20026;-56
2022/01/08 03:39:03;;;;;;;8.52;5.43;;;-1.50;99.90;;;;;;5091492;28;20475;-55
2022/01/08 03:41:29;;;;;;;7.13;5.85;;;-1.60;99.90;;;;;;5091322;28;20103;-56
2022/01/08 03:43:55;;;;;;;6.30;4.80;;;-1.80;99.90;;;;;;5091370;28;20095;-55
2022/01/08 03:46:22;;;;;;;6.63;5.15;;;-1.90;99.90;;;;;;5091420;28;20446;-54
2022/01/08 03:51:26;;;;;;;7.15;5.88;;;-2.10;99.90;;;;;;5091349;28;20045;-56
2022/01/08 03:53:52;;;;;;;5.85;5.30;;;-2.20;99.90;;;;;;5092515;28;20028;-55
2022/01/08 03:56:18;;;;;;;5.65;5.15;;;-2.40;99.90;;;;;;5092143;28;20544;-55
2022/01/08 03:58:44;;;;;;;5.22;4.72;;;-2.50;99.90;;;;;;5091402;28;20031;-54
2022/01/08 04:01:09;;;;;;;5.60;5.10;;;-2.60;99.90;;;;;;5091340;28;20141;-51
2022/01/08 04:03:35;;;;;;;5.63;5.13;;;-2.70;99.90;;;;;;5090668;28;20479;-52
2022/01/08 04:06:00;;;;;;;8.50;5.93;;;-2.80;99.90;;;;;;5091164;28;20031;-52
2022/01/08 04:08:26;;;;;;;5.72;5.22;;;-3.00;99.90;;;;;;5090826;28;20039;-55
2022/01/08 04:10:52;;;;;;;6.43;5.82;;;-3.10;99.90;;;;;;5090747;28;20027;-56
2022/01/08 04:13:23;;;;;;;6.32;5.22;;;-3.10;99.90;;;;;;5090786;28;20161;-53
2022/01/08 04:15:52;;;;;;;5.78;5.28;;;-3.10;99.90;;;;;;5090992;28;20024;-54
2022/01/08 04:18:18;;;;;;;7.38;5.95;;;-3.20;99.90;;;;;;5090828;28;20020;-55
2022/01/08 04:21:08;;;;;;;6.13;5.63;;;-3.20;99.90;;;;;;5090687;28;20012;-55
2022/01/08 04:23:34;;;;;;;5.97;5.47;;;-3.40;99.90;;;;;;5072460;28;20710;-56
2022/01/08 04:26:00;;;;;;;6.53;5.90;;;-3.40;99.90;;;;;;5072640;28;20036;-54
2022/01/08 04:28:25;;;;;;;8.48;6.40;;;-3.50;99.90;;;;;;5089900;28;20024;-54
2022/01/08 04:30:51;;;;;;;6.20;5.65;;;-3.60;99.90;;;;;;5091796;28;20063;-55
2022/01/08 04:33:16;;;;;;;5.88;5.38;;;-3.60;99.90;;;;;;5091946;28;20034;-54
2022/01/08 04:35:42;;;;;;;5.82;5.32;;;-3.70;99.90;;;;;;5091745;28;20024;-54
2022/01/08 04:38:08;;;;;;;6.00;5.38;;;-3.60;99.90;;;;;;5091733;28;20117;-54
2022/01/08 04:40:34;;;;;;;6.18;5.57;;;-3.60;99.90;;;;;;5090273;28;20020;-56
2022/01/08 04:43:01;;;;;;;6.95;6.13;;;-3.60;99.90;;;;;;5089719;28;20020;-55
2022/01/08 04:45:29;;;;;;;6.55;5.78;;;-3.60;99.90;;;;;;5090184;28;20020;-55
2022/01/08 04:47:56;;;;;;;6.10;5.63;;;-3.80;99.90;;;;;;5090518;28;20286;-54
2022/01/08 04:50:22;;;;;;;7.10;6.22;;;-3.90;99.90;;;;;;5072329;28;20020;-54
2022/01/08 04:52:48;;;;;;;6.40;5.80;;;-3.90;99.90;;;;;;5090415;28;20418;-55
2022/01/08 04:55:14;;;;;;;7.43;5.72;;;-4.00;99.90;;;;;;5090092;28;20043;-55
2022/01/08 04:57:40;;;;;;;6.47;5.88;;;-4.10;99.90;;;;;;5090240;28;20055;-55
2022/01/08 05:00:06;;;;;;;6.50;5.90;;;-4.10;99.90;;;;;;5090176;28;20056;-53
2022/01/08 05:02:33;;;;;;;6.95;6.35;;;-4.10;99.90;;;;;;5090104;28;20044;-54
2022/01/08 05:04:59;;;;;;;6.07;5.53;;;-4.20;99.90;;;;;;5090409;28;20024;-54
2022/01/08 05:07:24;;;;;;;7.45;6.43;;;-4.30;99.90;;;;;;5090134;28;20020;-56
2022/01/08 05:09:50;;;;;;;6.55;6.05;;;-4.40;99.90;;;;;;5090697;28;20081;-53
2022/01/08 05:12:15;;;;;;;6.05;5.45;;;-4.40;99.90;;;;;;5091372;28;20028;-57
2022/01/08 05:14:44;;;;;;;7.45;5.50;;;-4.40;99.90;;;;;;5072790;28;20028;-53
2022/01/08 05:17:09;;;;;;;10.55;5.63;;;-4.50;99.90;;;;;;5090396;28;20077;-58
2022/01/08 05:19:43;;;;;;;5.93;5.07;;;-4.50;99.90;;;;;;5090025;28;20036;-56
2022/01/08 05:22:18;;;;;;;7.70;6.32;;;-4.50;99.90;;;;;;5090321;28;20085;-55
2022/01/08 05:24:50;;;;;;;6.43;5.82;;;-4.50;99.90;;;;;;5089857;28;20048;-57
2022/01/08 05:27:17;;;;;;;7.25;6.55;;;-4.60;99.90;;;;;;5090494;28;20020;-57
2022/01/08 05:29:47;;;;;;;8.50;5.95;;;-4.60;99.90;;;;;;5089721;28;20023;-56
2022/01/08 05:32:17;;;;;;;6.93;6.22;;;-4.60;99.90;;;;;;5090153;28;20111;-55
2022/01/08 05:34:48;;;;;;;9.10;6.95;;;-4.70;99.90;;;;;;5089882;28;20043;-57
2022/01/08 05:37:16;;;;;;;7.53;6.68;;;-4.70;99.90;;;;;;5072005;28;20127;-56
2022/01/08 05:39:42;;;;;;;9.57;6.60;;;-4.70;99.90;;;;;;5071570;28;20135;-54
2022/01/08 05:42:07;;;;;;;13.63;8.57;;;-4.70;99.90;;;;;;5089831;28;20112;-54
2022/01/08 05:44:33;;;;;;;32.67;10.27;;;-4.70;99.90;;;;;;5089696;28;20021;-56
2022/01/08 05:46:59;;;;;;;24.65;11.25;;;-4.80;99.90;;;;;;5090006;28;20101;-54
2022/01/08 05:49:25;;;;;;;10.55;8.98;;;-4.90;99.90;;;;;;5071352;28;20507;-53
2022/01/08 05:51:50;;;;;;;10.68;9.30;;;-5.00;99.90;;;;;;5089762;28;20028;-55
2022/01/08 05:54:16;;;;;;;10.30;8.15;;;-5.00;99.90;;;;;;5074740;28;20078;-55
2022/01/08 05:56:42;;;;;;;8.50;7.68;;;-5.00;99.90;;;;;;5075234;28;20487;-57
2022/01/08 05:59:07;;;;;;;11.05;9.50;;;-5.00;99.90;;;;;;5093497;28;20026;-56
2022/01/08 06:01:34;;;;;;;12.23;9.27;;;-5.10;99.90;;;;;;5093339;28;20056;-56
2022/01/08 06:04:01;;;;;;;9.13;8.07;;;-5.00;99.90;;;;;;5093302;28;20017;-55
2022/01/08 06:06:26;;;;;;;8.20;7.13;;;-5.20;99.90;;;;;;5058758;28;20028;-56
2022/01/08 06:08:52;;;;;;;11.45;8.10;;;-5.20;99.90;;;;;;5093903;28;20032;-56
2022/01/08 06:11:17;;;;;;;17.00;8.73;;;-5.30;99.90;;;;;;5093877;28;20063;-55
2022/01/08 06:13:43;;;;;;;13.55;10.52;;;-5.20;99.90;;;;;;5093670;28;20039;-55
2022/01/08 06:16:09;;;;;;;35.95;11.15;;;-5.20;99.90;;;;;;5094028;28;20035;-53
2022/01/08 06:18:35;;;;;;;63.55;13.95;;;-5.30;99.90;;;;;;5093396;28;20485;-56
2022/01/08 06:21:01;;;;;;;13.27;9.63;;;-5.30;99.90;;;;;;5093306;28;20103;-56
2022/01/08 06:23:27;;;;;;;16.55;11.20;;;-5.30;99.90;;;;;;5094095;28;20107;-62
2022/01/08 06:25:53;;;;;;;19.08;10.55;;;-5.30;99.90;;;;;;5094320;28;20024;-56
2022/01/08 06:28:18;;;;;;;18.60;10.05;;;-5.30;99.90;;;;;;5093990;28;20020;-58
2022/01/08 06:30:44;;;;;;;15.15;10.20;;;-5.40;99.90;;;;;;5093911;28;20117;-56
2022/01/08 06:33:10;;;;;;;10.82;9.45;;;-5.30;99.90;;;;;;5094043;28;20141;-58
2022/01/08 06:35:35;;;;;;;11.40;7.82;;;-5.40;99.90;;;;;;5093898;28;20104;-57
2022/01/08 06:38:01;;;;;;;8.88;7.97;;;-5.30;99.90;;;;;;5093779;28;20039;-56
2022/01/08 06:40:27;;;;;;;12.00;8.63;;;-5.30;99.90;;;;;;5093838;28;20032;-56
2022/01/08 06:42:53;;;;;;;16.17;8.98;;;-5.40;99.90;;;;;;5093506;28;20591;-56
2022/01/08 06:45:18;;;;;;;11.18;7.25;;;-5.40;99.90;;;;;;5093745;28;20082;-56
2022/01/08 06:47:45;;;;;;;14.20;8.05;;;-5.40;99.90;;;;;;5093596;28;20097;-54
2022/01/08 06:50:11;;;;;;;9.93;7.82;;;-5.40;99.90;;;;;;5093120;28;20048;-56
2022/01/08 06:52:37;;;;;;;7.13;6.53;;;-5.40;99.90;;;;;;5092392;28;20112;-56
2022/01/08 06:55:04;;;;;;;10.80;7.60;;;-5.50;99.90;;;;;;5083587;28;20131;-55
2022/01/08 06:57:30;;;;;;;8.27;6.88;;;-5.40;99.90;;;;;;5071430;28;20442;-57
2022/01/08 06:59:56;;;;;;;11.93;7.32;;;-5.40;99.90;;;;;;5071831;28;20108;-53
2022/01/08 07:02:21;;;;;;;8.63;7.00;;;-5.40;99.90;;;;;;5070945;28;20027;-56
2022/01/08 07:04:47;;;;;;;7.60;6.88;;;-5.40;99.90;;;;;;5087698;28;20081;-57
2022/01/08 07:07:13;;;;;;;12.07;8.35;;;-5.40;99.90;;;;;;5090754;28;20412;-57
2022/01/08 07:09:38;;;;;;;12.82;8.68;;;-5.40;99.90;;;;;;5091070;28;20123;-57
2022/01/08 07:12:04;;;;;;;12.85;9.50;;;-5.40;99.90;;;;;;5090775;28;20017;-56
2022/01/08 07:14:30;;;;;;;10.32;8.85;;;-5.40;99.90;;;;;;5089622;28;20697;-56
2022/01/08 07:16:56;;;;;;;15.52;8.93;;;-5.50;99.90;;;;;;5089813;28;20028;-56
2022/01/08 07:19:21;;;;;;;13.05;9.13;;;-5.50;99.90;;;;;;5089908;28;20028;-55
2022/01/08 07:21:47;;;;;;;19.08;8.45;;;-5.40;99.90;;;;;;5090055;28;20051;-56
2022/01/08 07:24:12;;;;;;;12.20;8.70;;;-5.40;99.90;;;;;;5091267;28;20443;-55
2022/01/08 07:26:38;;;;;;;14.23;10.68;;;-5.30;99.90;;;;;;5091161;28;20028;-58
2022/01/08 07:29:04;;;;;;;13.35;9.00;;;-5.30;99.90;;;;;;5091645;28;20106;-55
2022/01/08 07:31:29;;;;;;;13.18;9.32;;;-5.30;99.90;;;;;;5091568;28;20103;-52
2022/01/08 07:33:55;;;;;;;57.22;15.57;;;-5.20;99.90;;;;;;5091694;28;20032;-55
2022/01/08 07:36:22;;;;;;;37.05;12.20;;;-5.20;99.90;;;;;;5091499;28;20035;-56
2022/01/08 07:38:49;;;;;;;43.65;14.13;;;-5.10;99.90;;;;;;5091606;28;20024;-55
2022/01/08 07:41:14;;;;;;;21.10;12.18;;;-5.10;99.90;;;;;;5091498;28;20323;-57
2022/01/08 07:43:40;;;;;;;22.00;11.05;;;-5.10;99.90;;;;;;5090029;28;20513;-55
2022/01/08 07:46:06;;;;;;;13.73;10.15;;;-5.00;99.90;;;;;;5091473;28;20467;-56
2022/01/08 07:48:31;;;;;;;14.85;10.02;;;-4.90;99.90;;;;;;5091188;28;20415;-55
2022/01/08 07:50:58;;;;;;;9.90;8.18;;;-4.80;99.90;;;;;;5089970;28;20017;-56
2022/01/08 07:53:24;;;;;;;30.75;10.02;;;-4.80;99.90;;;;;;5091327;28;20021;-55
2022/01/08 07:55:49;;;;;;;11.75;9.75;;;-4.70;99.90;;;;;;5091074;28;20054;-57
2022/01/08 07:58:20;;;;;;;15.63;9.85;;;-4.60;99.90;;;;;;5091228;28;20479;-56
2022/01/08 08:00:49;;;;;;;21.20;10.45;;;-4.50;99.90;;;;;;5091000;28;20021;-56
2022/01/08 08:03:15;;;;;;;11.77;9.20;;;-4.50;99.90;;;;;;5090985;28;20020;-57
2022/01/08 08:05:41;;;;;;;19.15;11.52;;;-4.30;99.90;;;;;;5090899;28;20020;-56
2022/01/08 08:08:07;;;;;;;17.08;10.48;;;-4.10;99.90;;;;;;5091046;28;20070;-58
2022/01/08 08:10:32;;;;;;;13.57;10.20;;;-3.80;99.90;;;;;;5090863;28;20026;-57
2022/01/08 08:12:58;;;;;;;11.35;9.70;;;-3.50;99.90;;;;;;5091418;28;20020;-54
2022/01/08 08:15:24;;;;;;;14.00;11.13;;;-3.20;99.90;;;;;;5090788;28;20017;-55
2022/01/08 08:17:52;;;;;;;11.65;8.85;;;-3.10;99.90;;;;;;5090891;28;20097;-55
2022/01/08 08:20:18;;;;;;;21.83;11.38;;;-2.90;99.90;;;;;;5090666;28;20039;-57
2022/01/08 08:22:44;;;;;;;12.25;9.10;;;-2.70;99.90;;;;;;5090757;28;20475;-56
2022/01/08 08:25:10;;;;;;;13.55;10.52;;;-2.50;99.90;;;;;;5090764;28;20034;-56
2022/01/08 08:27:37;;;;;;;44.75;30.73;;;-2.30;99.90;;;;;;5090696;28;20024;-56
2022/01/08 08:30:04;;;;;;;21.35;16.15;;;-2.20;99.90;;;;;;5090657;28;20065;-54
2022/01/08 08:32:29;;;;;;;19.23;14.27;;;-2.10;99.90;;;;;;5090714;28;20020;-56
2022/01/08 08:34:55;;;;;;;19.58;14.25;;;-1.90;99.90;;;;;;5090642;28;20028;-56
2022/01/08 08:37:21;;;;;;;27.73;15.32;;;-1.80;99.90;;;;;;5090689;28;20058;-58
2022/01/08 08:39:47;;;;;;;14.45;11.05;;;-1.70;99.90;;;;;;5090398;28;20036;-54
2022/01/08 08:42:12;;;;;;;22.58;9.57;;;-1.80;99.90;;;;;;5090535;28;20020;-56
2022/01/08 08:44:38;;;;;;;19.77;14.93;;;-1.70;99.90;;;;;;5090818;28;20024;-57
2022/01/08 08:47:04;;;;;;;23.92;16.88;;;-1.40;99.90;;;;;;5090516;28;20023;-55
2022/01/08 08:49:30;;;;;;;18.95;14.60;;;-1.00;99.90;;;;;;5072136;28;20018;-54
2022/01/08 08:51:56;;;;;;;17.65;11.35;;;-0.80;99.90;;;;;;5090492;28;20059;-57
2022/01/08 08:54:22;;;;;;;16.65;11.10;;;-0.60;99.90;;;;;;5090179;28;20028;-57
2022/01/08 08:56:48;;;;;;;19.73;12.88;;;-0.40;99.90;;;;;;5090376;28;20032;-58
2022/01/08 08:59:14;;;;;;;23.85;14.55;;;-0.30;99.90;;;;;;5090253;28;20032;-56
2022/01/08 09:01:40;;;;;;;15.68;10.18;;;-0.20;99.90;;;;;;5072120;28;20031;-55
2022/01/08 09:04:06;;;;;;;13.70;9.52;;;-0.10;99.90;;;;;;5090287;28;20129;-56
2022/01/08 09:06:32;;;;;;;12.57;9.65;;;0.10;99.90;;;;;;5090170;28;20012;-55
2022/01/08 09:08:58;;;;;;;11.40;7.68;;;0.30;99.90;;;;;;5090257;28;20506;-56
2022/01/08 09:11:25;;;;;;;15.13;10.32;;;0.20;99.90;;;;;;5090096;28;20498;-55
2022/01/08 09:13:51;;;;;;;20.92;11.88;;;0.50;99.90;;;;;;5090142;28;20028;-55
2022/01/08 09:16:17;;;;;;;16.70;10.50;;;0.60;99.90;;;;;;5090242;28;20035;-57
2022/01/08 09:18:43;;;;;;;13.80;10.10;;;0.70;99.90;;;;;;5071964;28;20383;-57
2022/01/08 09:21:09;;;;;;;21.25;11.43;;;0.90;99.90;;;;;;5090214;28;20017;-56
2022/01/08 09:23:35;;;;;;;12.73;10.52;;;1.00;99.90;;;;;;5090130;28;20573;-57
2022/01/08 09:26:01;;;;;;;15.77;10.05;;;1.20;99.90;;;;;;5090199;28;20020;-57
2022/01/08 09:28:28;;;;;;;15.50;11.45;;;1.10;99.90;;;;;;5073961;28;20028;-57
2022/01/08 09:30:54;;;;;;;35.65;21.67;;;1.10;99.90;;;;;;5094118;28;20017;-56
2022/01/08 09:33:21;;;;;;;67.00;42.33;;;1.20;99.90;;;;;;5094099;28;20020;-56
2022/01/08 09:35:47;;;;;;;251.63;141.48;;;1.10;99.90;;;;;;5093834;28;20337;-57
2022/01/08 09:38:13;;;;;;;44.78;29.48;;;1.30;99.90;;;;;;5093929;28;20285;-58
2022/01/08 09:40:39;;;;;;;143.45;96.72;;;1.30;99.90;;;;;;5075404;28;20016;-56
2022/01/08 09:43:05;;;;;;;15.55;12.02;;;1.30;99.90;;;;;;5093707;28;20028;-55
2022/01/08 09:45:31;;;;;;;43.65;28.38;;;1.30;99.90;;;;;;5093679;28;20028;-57
2022/01/08 09:47:57;;;;;;;15.13;11.55;;;1.30;99.90;;;;;;5093770;28;20044;-56
2022/01/08 09:50:23;;;;;;;16.10;12.90;;;1.30;99.90;;;;;;5093493;28;20051;-57
2022/01/08 09:52:53;;;;;;;14.10;7.47;;;1.50;99.90;;;;;;5093491;28;20024;-55
2022/01/08 09:55:19;;;;;;;8.30;7.15;;;1.70;99.90;;;;;;5093375;28;20093;-56
2022/01/08 09:57:45;;;;;;;52.17;25.33;;;1.70;99.90;;;;;;5093311;28;20020;-56
2022/01/08 10:00:13;;;;;;;9.65;8.48;;;1.50;99.90;;;;;;5093503;28;20539;-56
2022/01/08 10:02:39;;;;;;;10.43;7.25;;;1.50;99.90;;;;;;5093240;28;20519;-58
2022/01/08 10:05:15;;;;;;;33.45;18.02;;;1.60;99.90;;;;;;5093370;28;20108;-58
2022/01/08 10:07:41;;;;;;;7.50;6.13;;;1.50;99.90;;;;;;5093278;28;20066;-57
2022/01/08 10:10:12;;;;;;;5.75;5.10;;;1.70;99.90;;;;;;5093199;28;20020;-56
2022/01/08 10:12:54;;;;;;;5.68;4.78;;;1.70;99.90;;;;;;5093336;28;20403;-57
2022/01/08 10:18:35;;;;;;;5.55;4.88;;;1.90;99.90;;;;;;5093230;28;20173;-58
2022/01/08 10:21:16;;;;;;;14.43;9.60;;;2.30;99.90;;;;;;5093199;28;20020;-57
2022/01/08 10:23:45;;;;;;;7.70;6.65;;;2.60;99.90;;;;;;5092966;28;20054;-58
2022/01/08 10:26:13;;;;;;;16.40;11.20;;;3.20;99.90;;;;;;5092950;28;20084;-58
2022/01/08 10:28:43;;;;;;;8.70;7.05;;;3.40;99.90;;;;;;5092792;28;20016;-54
2022/01/08 10:31:09;;;;;;;7.90;5.93;;;3.50;99.90;;;;;;5092790;28;20383;-58
2022/01/08 10:33:35;;;;;;;6.78;4.65;;;4.10;99.90;;;;;;5092705;28;20020;-57
2022/01/08 10:36:01;;;;;;;12.00;7.63;;;4.70;99.90;;;;;;5092800;28;20016;-57
2022/01/08 10:38:27;;;;;;;6.05;5.35;;;4.70;99.90;;;;;;5092190;28;20027;-58
2022/01/08 10:40:53;;;;;;;7.07;6.00;;;4.90;99.90;;;;;;5091792;28;20032;-58
2022/01/08 10:43:39;;;;;;;8.15;5.68;;;5.10;99.90;;;;;;5092973;28;20431;-58
2022/01/08 10:46:18;;;;;;;6.35;5.47;;;5.50;99.90;;;;;;5090710;28;20113;-58
2022/01/08 10:48:50;;;;;;;9.40;5.03;;;6.00;99.90;;;;;;5073058;28;20028;-56
2022/01/08 10:51:26;;;;;;;13.55;5.55;;;6.10;99.90;;;;;;5073193;28;20024;-58
2022/01/08 10:54:02;;;;;;;8.32;6.15;;;5.70;99.90;;;;;;5076364;28;20047;-55
2022/01/08 10:56:38;;;;;;;8.52;5.32;;;5.10;99.90;;;;;;5092724;28;20047;-57
2022/01/08 10:59:06;;;;;;;12.95;7.15;;;4.50;99.90;;;;;;5093100;28;20103;-57
2022/01/08 11:01:36;;;;;;;5.90;4.40;;;3.70;99.90;;;;;;5093088;28;20360;-55
2022/01/08 11:04:02;;;;;;;9.48;6.03;;;3.60;99.90;;;;;;5093326;28;20027;-55
2022/01/08 11:06:57;;;;;;;6.25;4.90;;;3.00;99.90;;;;;;5092470;28;20020;-59
2022/01/08 11:09:24;;;;;;;4.32;3.92;;;2.90;99.90;;;;;;5093010;28;20031;-58
2022/01/08 11:11:50;;;;;;;4.20;3.50;;;2.80;99.90;;;;;;5075042;28;20028;-56
2022/01/08 11:14:45;;;;;;;3.88;3.40;;;2.80;99.90;;;;;;5093062;28;20432;-52
2022/01/08 11:17:14;;;;;;;7.32;4.70;;;2.70;99.90;;;;;;5092753;28;20032;-55
2022/01/08 11:19:43;;;;;;;6.40;3.53;;;2.60;99.90;;;;;;5092787;28;20107;-55
2022/01/08 11:22:12;;;;;;;5.95;3.97;;;2.70;99.90;;;;;;5096241;28;21529;-57
2022/01/08 11:24:53;;;;;;;4.93;4.00;;;2.80;99.90;;;;;;5101501;28;20031;-56
2022/01/08 11:27:22;;;;;;;5.63;4.32;;;2.90;99.90;;;;;;5101248;28;20027;-54
2022/01/08 11:30:03;;;;;;;36.88;16.83;;;2.70;99.90;;;;;;5090814;28;20294;-55
2022/01/08 11:32:29;;;;;;;42.65;19.52;;;2.60;99.90;;;;;;5081323;28;20028;-56
2022/01/08 11:34:56;;;;;;;6.00;4.20;;;2.70;99.90;;;;;;5081991;28;20582;-53
2022/01/08 11:37:27;;;;;;;3.83;3.53;;;2.60;99.90;;;;;;5081036;28;20035;-54
2022/01/08 11:39:53;;;;;;;7.97;5.82;;;2.70;99.90;;;;;;5080278;28;20043;-52
2022/01/08 11:42:22;;;;;;;4.35;3.78;;;2.70;99.90;;;;;;5081353;28;20060;-54
2022/01/08 11:44:52;;;;;;;21.85;10.23;;;2.60;99.90;;;;;;5081077;28;20032;-56
2022/01/08 11:47:19;;;;;;;20.30;10.93;;;2.50;99.90;;;;;;5081856;28;20024;-53
2022/01/08 11:49:47;;;;;;;6.53;4.45;;;2.40;99.90;;;;;;5081345;28;20030;-55
2022/01/08 11:52:19;;;;;;;5.00;3.40;;;2.40;99.90;;;;;;5080628;28;20031;-56
2022/01/08 11:54:47;;;;;;;4.28;3.97;;;2.40;99.90;;;;;;5081050;28;20036;-53
2022/01/08 11:57:22;;;;;;;6.13;4.47;;;2.30;99.90;;;;;;5081130;28;20036;-57
2022/01/08 11:59:49;;;;;;;3.38;3.17;;;2.30;99.90;;;;;;5081486;28;20035;-51
2022/01/08 12:02:15;;;;;;;3.70;3.38;;;2.30;99.90;;;;;;5080762;28;20119;-57
2022/01/08 12:04:51;;;;;;;3.60;3.30;;;2.30;99.90;;;;;;5081085;28;20050;-55
2022/01/08 12:07:40;;;;;;;3.38;3.13;;;2.40;99.90;;;;;;5080686;28;20034;-53
2022/01/08 12:10:18;;;;;;;2.78;2.58;;;2.40;99.90;;;;;;5081162;28;20028;-53
2022/01/08 12:12:59;;;;;;;3.80;3.22;;;2.40;99.90;;;;;;5080956;28;20109;-51
2022/01/08 12:15:40;;;;;;;3.10;2.90;;;2.30;99.90;;;;;;5081006;28;20031;-52
2022/01/08 12:18:14;;;;;;;4.03;2.90;;;2.30;99.90;;;;;;5080978;28;20024;-55
2022/01/08 12:20:53;;;;;;;3.47;2.90;;;2.20;99.90;;;;;;5080451;28;20490;-55
2022/01/08 12:23:31;;;;;;;3.72;3.33;;;2.20;99.90;;;;;;5080799;28;20039;-55
2022/01/08 12:26:00;;;;;;;2.78;2.58;;;2.30;99.90;;;;;;5079791;28;20032;-56
2022/01/08 12:29:00;;;;;;;2.65;2.45;;;2.20;99.90;;;;;;5081257;28;20566;-53
2022/01/08 12:31:30;;;;;;;3.58;2.72;;;2.20;99.90;;;;;;5080809;28;20028;-53
2022/01/08 12:34:28;;;;;;;3.42;3.13;;;2.20;99.90;;;;;;5062033;28;20489;-54
2022/01/08 12:37:00;;;;;;;3.17;2.97;;;2.10;99.90;;;;;;5080837;28;20031;-52
2022/01/08 12:39:44;;;;;;;2.38;2.20;;;2.20;99.90;;;;;;5062096;28;20039;-55
2022/01/08 12:42:25;;;;;;;2.42;2.28;;;2.10;99.90;;;;;;5080681;28;20051;-56
2022/01/08 12:45:15;;;;;;;6.82;3.30;;;2.10;99.90;;;;;;5080226;28;20040;-56
2022/01/08 12:47:57;;;;;;;2.58;2.47;;;2.10;99.90;;;;;;5080463;28;20026;-55
2022/01/08 12:50:24;;;;;;;2.95;2.75;;;2.10;99.90;;;;;;5080427;28;20145;-54
2022/01/08 12:53:05;;;;;;;7.13;3.20;;;2.10;99.90;;;;;;5079874;28;20036;-57
2022/01/08 12:55:36;;;;;;;2.83;2.63;;;2.00;99.90;;;;;;5099237;28;20055;-54
2022/01/08 12:58:30;;;;;;;2.67;2.58;;;2.10;99.90;;;;;;5098095;28;20081;-53
2022/01/08 13:00:57;;;;;;;5.40;4.40;;;2.20;99.90;;;;;;5090868;28;20024;-52
2022/01/08 13:03:25;;;;;;;3.35;3.05;;;2.10;99.90;;;;;;5082747;28;20356;-56
2022/01/08 13:05:52;;;;;;;4.72;2.88;;;2.20;99.90;;;;;;5084456;28;20024;-56
2022/01/08 13:08:28;;;;;;;3.45;3.15;;;2.40;99.90;;;;;;5082379;28;20051;-54
2022/01/08 13:11:02;;;;;;;3.10;2.90;;;2.40;99.90;;;;;;5081762;28;20032;-55
2022/01/08 13:13:40;;;;;;;3.60;3.30;;;2.30;99.90;;;;;;5082617;28;21052;-54